createdAt,value
2018-02-05T00:00:12.580Z,-0.60
2018-02-05T00:02:41.177Z,-0.60
2018-02-05T00:05:08.714Z,-0.60
2018-02-05T00:07:36.244Z,-0.70
2018-02-05T00:10:03.785Z,-0.70
2018-02-05T00:12:31.320Z,-0.70
2018-02-05T00:14:59.635Z,-0.80
2018-02-05T00:17:27.797Z,-0.80
2018-02-05T00:19:55.348Z,-0.80
2018-02-05T00:22:22.876Z,-0.80
2018-02-05T00:24:51.780Z,-0.90
2018-02-05T00:27:20.095Z,-0.90
2018-02-05T00:29:47.623Z,-0.90
2018-02-05T00:32:15.468Z,-0.90
2018-02-05T00:34:43.098Z,-0.90
2018-02-05T00:37:10.660Z,-0.90
2018-02-05T00:39:38.338Z,-0.90
2018-02-05T00:42:05.956Z,-0.80
2018-02-05T00:44:33.628Z,-0.80
2018-02-05T00:47:01.567Z,-0.80
2018-02-05T00:49:29.166Z,-0.80
2018-02-05T00:51:56.790Z,-0.70
2018-02-05T00:54:24.384Z,-0.70
2018-02-05T00:56:52.809Z,-0.70
2018-02-05T00:59:20.440Z,-0.70
2018-02-05T01:01:48.009Z,-0.70
2018-02-05T01:04:16.441Z,-0.60
2018-02-05T01:06:44.096Z,-0.60
2018-02-05T01:09:12.236Z,-0.60
2018-02-05T01:11:40.624Z,-0.60
2018-02-05T01:14:09.040Z,-0.60
2018-02-05T01:16:37.465Z,-0.60
2018-02-05T01:19:07.133Z,-0.60
2018-02-05T01:21:34.757Z,-0.60
2018-02-05T01:24:03.185Z,-0.60
2018-02-05T01:26:30.962Z,-0.60
2018-02-05T01:29:01.057Z,-0.60
2018-02-05T01:31:28.680Z,-0.60
2018-02-05T01:33:56.287Z,-0.60
2018-02-05T01:36:23.913Z,-0.60
2018-02-05T01:38:51.529Z,-0.70
2018-02-05T01:41:21.809Z,-0.70
2018-02-05T01:43:49.361Z,-0.70
2018-02-05T01:46:17.388Z,-0.70
2018-02-05T01:48:44.936Z,-0.70
2018-02-05T01:51:12.492Z,-0.70
2018-02-05T01:53:46.575Z,-0.60
2018-02-05T01:56:14.146Z,-0.60
2018-02-05T01:58:41.712Z,-0.60
2018-02-05T02:01:09.678Z,-0.70
2018-02-05T02:03:38.769Z,-0.60
2018-02-05T02:06:06.312Z,-0.60
2018-02-05T02:08:33.868Z,-0.70
2018-02-05T02:11:01.952Z,-0.70
2018-02-05T02:13:29.516Z,-0.70
2018-02-05T02:15:57.091Z,-0.70
2018-02-05T02:18:26.191Z,-0.70
2018-02-05T02:20:53.735Z,-0.80
2018-02-05T02:23:21.292Z,-0.80
2018-02-05T02:25:48.881Z,-0.80
2018-02-05T02:28:16.444Z,-0.80
2018-02-05T02:30:43.995Z,-0.80
2018-02-05T02:33:11.580Z,-0.90
2018-02-05T02:35:39.894Z,-0.90
2018-02-05T02:38:07.794Z,-1.00
2018-02-05T02:40:35.347Z,-0.80
2018-02-05T02:43:02.877Z,-0.80
2018-02-05T02:45:30.436Z,-0.80
2018-02-05T02:47:58.656Z,-0.80
2018-02-05T02:50:26.531Z,-0.80
2018-02-05T02:52:54.499Z,-0.80
2018-02-05T02:55:22.063Z,-0.80
2018-02-05T02:57:49.746Z,-0.90
2018-02-05T03:00:18.635Z,-1.00
2018-02-05T03:02:46.981Z,-1.10
2018-02-05T03:05:14.533Z,-1.10
2018-02-05T03:07:42.596Z,-1.10
2018-02-05T03:10:10.166Z,-1.20
2018-02-05T03:12:37.728Z,-1.30
2018-02-05T03:15:05.281Z,-1.50
2018-02-05T03:17:32.833Z,-1.60
2018-02-05T03:20:00.800Z,-1.60
2018-02-05T03:22:28.341Z,-1.70
2018-02-05T03:24:56.230Z,-1.70
2018-02-05T03:27:25.163Z,-1.70
2018-02-05T03:29:53.261Z,-1.70
2018-02-05T03:32:21.562Z,-1.60
2018-02-05T03:34:49.612Z,-1.60
2018-02-05T03:37:17.181Z,-1.60
2018-02-05T03:39:44.740Z,-1.50
2018-02-05T03:42:12.284Z,-1.40
2018-02-05T03:44:40.595Z,-1.40
2018-02-05T03:47:08.147Z,-1.40
2018-02-05T03:49:35.683Z,-1.40
2018-02-05T03:52:03.241Z,-1.50
2018-02-05T03:54:31.241Z,-1.50
2018-02-05T03:56:58.793Z,-1.50
2018-02-05T03:59:26.326Z,-1.40
2018-02-05T04:04:28.220Z,-1.40
2018-02-05T04:07:01.743Z,-1.50
2018-02-05T04:09:29.965Z,-1.60
2018-02-05T04:11:58.268Z,-1.80
2018-02-05T04:14:25.834Z,-1.90
2018-02-05T04:16:53.947Z,-2.00
2018-02-05T04:19:21.491Z,-2.10
2018-02-05T04:21:49.042Z,-2.20
2018-02-05T04:24:17.192Z,-2.30
2018-02-05T04:26:44.733Z,-2.40
2018-02-05T04:29:12.285Z,-2.60
2018-02-05T04:31:39.843Z,-2.70
2018-02-05T04:34:08.152Z,-3.00
2018-02-05T04:36:36.406Z,-3.00
2018-02-05T04:39:03.960Z,-3.20
2018-02-05T04:41:32.265Z,-3.20
2018-02-05T04:43:59.806Z,-3.20
2018-02-05T04:46:28.108Z,-3.30
2018-02-05T04:48:55.656Z,-3.30
2018-02-05T04:51:23.204Z,-3.30
2018-02-05T04:53:52.143Z,-3.30
2018-02-05T04:56:19.690Z,-3.40
2018-02-05T04:58:47.379Z,-3.30
2018-02-05T05:03:49.239Z,-3.40
2018-02-05T05:06:17.542Z,-3.50
2018-02-05T05:08:45.088Z,-3.50
2018-02-05T05:11:12.658Z,-3.50
2018-02-05T05:13:40.195Z,-3.50
2018-02-05T05:16:08.409Z,-3.50
2018-02-05T05:18:35.973Z,-3.50
2018-02-05T05:21:04.271Z,-3.50
2018-02-05T05:23:31.807Z,-3.60
2018-02-05T05:25:59.508Z,-3.50
2018-02-05T05:28:27.057Z,-3.40
2018-02-05T05:30:54.637Z,-3.30
2018-02-05T05:33:22.449Z,-3.30
2018-02-05T05:35:50.031Z,-3.30
2018-02-05T05:38:19.240Z,-3.40
2018-02-05T05:40:47.485Z,-3.40
2018-02-05T05:43:15.684Z,-3.40
2018-02-05T05:45:49.316Z,-3.30
2018-02-05T05:48:17.011Z,-3.30
2018-02-05T05:50:44.552Z,-3.30
2018-02-05T05:53:12.100Z,-3.20
2018-02-05T05:55:39.638Z,-3.20
2018-02-05T05:58:07.634Z,-3.20
2018-02-05T06:00:35.164Z,-3.20
2018-02-05T06:03:02.941Z,-3.20
2018-02-05T06:05:30.598Z,-3.30
2018-02-05T06:07:58.588Z,-3.20
2018-02-05T06:10:26.133Z,-3.20
2018-02-05T06:12:53.740Z,-3.30
2018-02-05T06:15:22.100Z,-3.30
2018-02-05T06:17:49.704Z,-3.40
2018-02-05T06:20:19.891Z,-3.40
2018-02-05T06:22:47.593Z,-3.40
2018-02-05T06:25:15.925Z,-3.40
2018-02-05T06:27:43.518Z,-3.40
2018-02-05T06:30:11.087Z,-3.40
2018-02-05T06:32:38.652Z,-3.40
2018-02-05T06:35:06.296Z,-3.40
2018-02-05T06:37:35.404Z,-3.40
2018-02-05T06:40:07.826Z,-3.40
2018-02-05T06:42:35.454Z,-3.40
2018-02-05T06:45:03.094Z,-3.50
2018-02-05T06:47:31.252Z,-3.50
2018-02-05T06:49:58.842Z,-3.50
2018-02-05T06:52:38.421Z,-3.50
2018-02-05T06:55:17.729Z,-3.50
2018-02-05T06:57:46.886Z,-3.40
2018-02-05T07:00:14.405Z,-3.40
2018-02-05T07:02:42.700Z,-3.40
2018-02-05T07:05:10.791Z,-3.40
2018-02-05T07:07:38.374Z,-3.40
2018-02-05T07:10:05.907Z,-3.40
2018-02-05T07:12:33.434Z,-3.40
2018-02-05T07:15:01.713Z,-3.30
2018-02-05T07:17:30.117Z,-3.20
2018-02-05T07:19:57.643Z,-3.20
2018-02-05T07:22:26.668Z,-2.90
2018-02-05T07:24:54.620Z,-2.90
2018-02-05T07:27:23.065Z,-2.80
2018-02-05T07:29:50.624Z,-2.70
2018-02-05T07:32:18.240Z,-2.60
2018-02-05T07:34:45.760Z,-2.50
2018-02-05T07:37:14.087Z,-2.20
2018-02-05T07:39:41.603Z,-2.30
2018-02-05T07:42:09.119Z,-2.10
2018-02-05T07:44:36.653Z,-2.00
2018-02-05T07:47:04.591Z,-1.90
2018-02-05T07:49:32.958Z,-1.70
2018-02-05T07:52:01.776Z,-1.40
2018-02-05T07:54:29.331Z,-1.40
2018-02-05T07:56:56.860Z,-1.30
2018-02-05T07:59:25.173Z,-1.10
2018-02-05T08:01:52.721Z,-1.10
2018-02-05T08:04:20.288Z,-1.00
2018-02-05T08:06:47.847Z,-0.70
2018-02-05T08:09:16.084Z,-0.70
2018-02-05T08:11:44.593Z,-0.60
2018-02-05T08:14:12.111Z,-0.60
2018-02-05T08:16:39.638Z,-0.50
2018-02-05T08:19:07.176Z,-0.40
2018-02-05T08:21:34.691Z,-0.30
2018-02-05T08:24:03.002Z,-0.30
2018-02-05T08:26:30.530Z,-0.30
2018-02-05T08:28:58.842Z,-0.10
2018-02-05T08:31:26.913Z,-0.10
2018-02-05T08:33:55.139Z,-0.10
2018-02-05T08:36:23.084Z,0.10
2018-02-05T08:38:50.611Z,0.20
2018-02-05T08:41:18.128Z,0.30
2018-02-05T08:43:46.447Z,0.50
2018-02-05T08:46:13.968Z,0.50
2018-02-05T08:48:42.912Z,0.70
2018-02-05T08:51:10.432Z,0.80
2018-02-05T08:53:38.293Z,1.20
2018-02-05T08:56:06.593Z,1.20
2018-02-05T08:58:34.147Z,1.20
2018-02-05T09:01:01.711Z,1.20
2018-02-05T09:03:29.778Z,1.30
2018-02-05T09:05:57.716Z,1.50
2018-02-05T09:08:26.416Z,1.40
2018-02-05T09:10:55.005Z,1.30
2018-02-05T09:13:22.524Z,1.50
2018-02-05T09:15:50.036Z,1.50
2018-02-05T09:18:17.559Z,1.30
2018-02-05T09:20:45.844Z,0.90
2018-02-05T09:23:13.361Z,0.90
2018-02-05T09:25:40.895Z,0.80
2018-02-05T09:28:08.616Z,0.70
2018-02-05T09:30:37.443Z,0.70
2018-02-05T09:33:04.969Z,0.70
2018-02-05T09:35:32.493Z,0.90
2018-02-05T09:38:00.352Z,1.10
2018-02-05T09:40:27.876Z,1.20
2018-02-05T09:42:55.396Z,1.10
2018-02-05T09:45:23.686Z,0.80
2018-02-05T09:47:51.755Z,0.70
2018-02-05T09:50:19.476Z,0.60
2018-02-05T09:52:46.992Z,0.50
2018-02-05T09:55:14.511Z,0.50
2018-02-05T09:57:42.799Z,0.80
2018-02-05T10:00:11.668Z,1.00
2018-02-05T10:02:39.599Z,1.00
2018-02-05T10:05:07.424Z,1.30
2018-02-05T10:07:35.720Z,1.90
2018-02-05T10:10:03.230Z,1.80
2018-02-05T10:12:30.748Z,2.50
2018-02-05T10:14:58.677Z,3.30
2018-02-05T10:17:26.972Z,4.90
2018-02-05T10:19:54.545Z,4.90
2018-02-05T10:22:22.076Z,6.20
2018-02-05T10:24:51.050Z,6.70
2018-02-05T10:27:19.337Z,5.80
2018-02-05T10:29:47.629Z,5.70
2018-02-05T10:32:15.147Z,5.70
2018-02-05T10:34:46.034Z,6.80
2018-02-05T10:37:14.118Z,6.80
2018-02-05T10:39:41.645Z,7.50
2018-02-05T10:42:09.197Z,7.40
2018-02-05T10:44:37.477Z,7.00
2018-02-05T10:47:05.781Z,6.60
2018-02-05T10:49:33.657Z,6.60
2018-02-05T10:52:01.251Z,6.50
2018-02-05T10:54:28.875Z,6.50
2018-02-05T10:56:56.391Z,6.70
2018-02-05T10:59:24.664Z,7.00
2018-02-05T11:01:53.084Z,7.50
2018-02-05T11:04:20.597Z,7.40
2018-02-05T11:06:48.883Z,6.70
2018-02-05T11:09:17.161Z,7.00
2018-02-05T11:11:45.435Z,7.20
2018-02-05T11:14:13.729Z,7.60
2018-02-05T11:16:41.236Z,7.60
2018-02-05T11:19:08.780Z,7.70
2018-02-05T11:21:36.293Z,7.70
2018-02-05T11:24:04.561Z,7.70
2018-02-05T11:26:32.852Z,7.70
2018-02-05T11:29:00.509Z,7.70
2018-02-05T11:31:28.185Z,7.50
2018-02-05T11:33:55.734Z,7.50
2018-02-05T11:36:23.247Z,7.90
2018-02-05T11:38:50.776Z,7.80
2018-02-05T11:41:18.280Z,7.50
2018-02-05T11:43:46.604Z,7.50
2018-02-05T11:46:14.115Z,7.50
2018-02-05T11:48:49.159Z,7.30
2018-02-05T11:51:17.779Z,7.20
2018-02-05T11:53:45.295Z,7.20
2018-02-05T11:56:13.568Z,7.00
2018-02-05T11:58:41.850Z,7.00
2018-02-05T12:01:10.135Z,6.90
2018-02-05T12:03:37.656Z,6.90
2018-02-05T12:06:05.600Z,6.60
2018-02-05T12:08:33.302Z,6.50
2018-02-05T12:11:01.574Z,6.60
2018-02-05T12:13:29.872Z,6.90
2018-02-05T12:15:57.388Z,6.90
2018-02-05T12:18:24.910Z,6.90
2018-02-05T12:20:53.036Z,7.80
2018-02-05T12:23:21.320Z,8.20
2018-02-05T12:25:49.600Z,7.70
2018-02-05T12:28:17.876Z,7.70
2018-02-05T12:30:46.291Z,7.60
2018-02-05T12:33:14.529Z,7.60
2018-02-05T12:35:43.370Z,7.60
2018-02-05T12:38:11.425Z,7.60
2018-02-05T12:40:39.143Z,7.50
2018-02-05T12:43:07.477Z,7.70
2018-02-05T12:45:35.011Z,8.20
2018-02-05T12:48:02.516Z,8.40
2018-02-05T12:50:30.049Z,8.20
2018-02-05T12:52:57.560Z,8.50
2018-02-05T12:55:25.076Z,8.20
2018-02-05T12:57:55.063Z,8.00
2018-02-05T13:03:33.320Z,7.70
2018-02-05T13:08:32.886Z,6.90
2018-02-05T13:11:01.276Z,6.90
2018-02-05T13:13:28.791Z,6.90
2018-02-05T13:15:56.315Z,7.20
2018-02-05T13:18:23.828Z,7.30
2018-02-05T13:20:52.120Z,7.10
2018-02-05T13:23:22.405Z,7.20
2018-02-05T13:25:50.604Z,6.90
2018-02-05T13:28:18.904Z,6.90
2018-02-05T13:30:46.412Z,6.90
2018-02-05T13:33:16.698Z,7.50
2018-02-05T13:35:44.216Z,7.60
2018-02-05T13:38:12.491Z,7.40
2018-02-05T13:40:41.103Z,7.60
2018-02-05T13:43:08.735Z,7.60
2018-02-05T13:45:37.016Z,7.10
2018-02-05T13:48:05.932Z,6.50
2018-02-05T13:50:33.453Z,6.50
2018-02-05T13:53:01.745Z,5.70
2018-02-05T13:55:31.108Z,5.70
2018-02-05T13:57:58.623Z,5.40
2018-02-05T14:00:26.155Z,5.10
2018-02-05T14:02:54.436Z,4.50
2018-02-05T14:05:22.972Z,4.50
2018-02-05T14:07:50.493Z,4.30
2018-02-05T14:10:18.009Z,4.10
2018-02-05T14:12:48.084Z,4.00
2018-02-05T14:15:15.600Z,4.00
2018-02-05T14:17:44.460Z,3.90
2018-02-05T14:20:14.422Z,3.90
2018-02-05T14:22:41.968Z,3.90
2018-02-05T14:25:10.663Z,3.80
2018-02-05T14:27:38.183Z,3.80
2018-02-05T14:30:05.732Z,3.80
2018-02-05T14:32:33.236Z,3.70
2018-02-05T14:35:00.752Z,3.70
2018-02-05T14:37:29.187Z,3.60
2018-02-05T14:39:56.701Z,3.60
2018-02-05T14:42:24.215Z,3.60
2018-02-05T14:44:52.143Z,3.60
2018-02-05T14:47:20.417Z,3.50
2018-02-05T14:49:49.035Z,3.50
2018-02-05T14:52:16.962Z,3.50
2018-02-05T14:54:45.244Z,3.50
2018-02-05T14:57:13.532Z,3.50
2018-02-05T14:59:41.048Z,3.50
2018-02-05T15:02:08.594Z,3.40
2018-02-05T15:04:36.881Z,3.40
2018-02-05T15:07:04.398Z,3.30
2018-02-05T15:09:32.482Z,3.30
2018-02-05T15:12:00.096Z,3.30
2018-02-05T15:14:28.372Z,3.20
2018-02-05T15:16:57.209Z,3.10
2018-02-05T15:19:24.940Z,3.10
2018-02-05T15:21:52.883Z,3.00
2018-02-05T15:24:21.212Z,3.00
2018-02-05T15:26:48.699Z,3.00
2018-02-05T15:29:16.211Z,3.20
2018-02-05T15:31:43.760Z,3.40
2018-02-05T15:34:11.281Z,3.50
2018-02-05T15:36:38.786Z,3.30
2018-02-05T15:39:06.310Z,3.10
2018-02-05T15:41:34.580Z,2.70
2018-02-05T15:44:03.291Z,2.60
2018-02-05T15:46:30.807Z,2.50
2018-02-05T15:48:58.749Z,2.50
2018-02-05T15:51:26.261Z,2.50
2018-02-05T15:53:54.539Z,2.50
2018-02-05T15:56:22.826Z,2.40
2018-02-05T15:58:50.355Z,2.40
2018-02-05T16:01:18.636Z,2.20
2018-02-05T16:03:46.914Z,2.00
2018-02-05T16:06:15.199Z,1.80
2018-02-05T16:08:44.469Z,1.70
2018-02-05T16:11:11.996Z,1.70
2018-02-05T16:13:39.544Z,1.50
2018-02-05T16:16:07.043Z,1.40
2018-02-05T16:18:34.579Z,1.30
2018-02-05T16:21:02.611Z,1.30
2018-02-05T16:23:30.134Z,1.20
2018-02-05T16:25:57.672Z,1.10
2018-02-05T16:28:25.188Z,1.00
2018-02-05T16:30:53.232Z,0.90
2018-02-05T16:33:21.517Z,0.60
2018-02-05T16:35:50.086Z,0.50
2018-02-05T16:38:19.052Z,0.30
2018-02-05T16:40:46.579Z,0.30
2018-02-05T16:43:14.110Z,0.30
2018-02-05T16:45:42.379Z,0.20
2018-02-05T16:48:11.606Z,0.30
2018-02-05T16:50:39.320Z,0.20
2018-02-05T16:53:06.836Z,0.20
2018-02-05T16:55:34.340Z,0.00
2018-02-05T16:58:01.859Z,0.00
2018-02-05T17:00:29.376Z,0.10
2018-02-05T17:02:59.012Z,-0.10
2018-02-05T17:05:26.979Z,-0.10
2018-02-05T17:07:54.872Z,-0.10
2018-02-05T17:10:22.398Z,-0.20
2018-02-05T17:12:50.629Z,-0.20
2018-02-05T17:15:20.264Z,-0.20
2018-02-05T17:17:47.804Z,-0.30
2018-02-05T17:20:16.276Z,-0.40
2018-02-05T17:22:43.905Z,-0.40
2018-02-05T17:25:11.785Z,-0.40
2018-02-05T17:27:39.306Z,-0.50
2018-02-05T17:30:07.136Z,-0.50
2018-02-05T17:32:35.421Z,-0.70
2018-02-05T17:35:03.708Z,-0.80
2018-02-05T17:37:31.232Z,-0.80
2018-02-05T17:39:58.748Z,-0.90
2018-02-05T17:42:26.263Z,-0.90
2018-02-05T17:44:54.559Z,-0.90
2018-02-05T17:47:22.076Z,-0.90
2018-02-05T17:49:49.592Z,-0.90
2018-02-05T17:52:17.113Z,-1.00
2018-02-05T17:54:46.346Z,-1.00
2018-02-05T17:57:13.880Z,-1.00
2018-02-05T17:59:45.000Z,-1.00
2018-02-05T18:02:13.293Z,-1.10
2018-02-05T18:04:41.580Z,-1.30
2018-02-05T18:07:09.308Z,-1.30
2018-02-05T18:09:36.820Z,-1.40
2018-02-05T18:12:06.787Z,-1.40
2018-02-05T18:14:34.764Z,-1.30
2018-02-05T18:17:03.084Z,-1.30
2018-02-05T18:19:30.642Z,-1.30
2018-02-05T18:21:58.199Z,-1.40
2018-02-05T18:24:25.762Z,-1.40
2018-02-05T18:26:54.003Z,-1.40
2018-02-05T18:29:22.759Z,-1.50
2018-02-05T18:31:50.739Z,-1.50
2018-02-05T18:34:19.780Z,-1.60
2018-02-05T18:36:47.305Z,-1.60
2018-02-05T18:39:15.610Z,-1.50
2018-02-05T18:41:43.125Z,-1.60
2018-02-05T18:44:11.420Z,-1.60
2018-02-05T18:46:39.710Z,-1.70
2018-02-05T18:49:07.232Z,-1.70
2018-02-05T18:51:35.521Z,-1.70
2018-02-05T18:54:03.811Z,-1.80
2018-02-05T18:56:43.414Z,-1.80
2018-02-05T18:59:12.465Z,-1.90
2018-02-05T19:01:39.991Z,-1.90
2018-02-05T19:04:08.282Z,-2.00
2018-02-05T19:06:35.860Z,-2.00
2018-02-05T19:09:03.404Z,-2.00
2018-02-05T19:11:30.945Z,-1.90
2018-02-05T19:13:59.227Z,-2.00
2018-02-05T19:16:26.811Z,-2.00
2018-02-05T19:18:55.955Z,-2.00
2018-02-05T19:21:24.259Z,-2.00
2018-02-05T19:23:51.786Z,-2.00
2018-02-05T19:26:19.589Z,-2.00
2018-02-05T19:28:47.310Z,-2.10
2018-02-05T19:31:16.337Z,-2.10
2018-02-05T19:33:45.730Z,-2.20
2018-02-05T19:36:14.019Z,-2.20
2018-02-05T19:38:41.592Z,-2.20
2018-02-05T19:41:09.120Z,-2.20
2018-02-05T19:43:37.604Z,-2.30
2018-02-05T19:46:05.905Z,-2.40
2018-02-05T19:48:33.467Z,-2.40
2018-02-05T19:51:02.399Z,-2.50
2018-02-05T19:53:29.920Z,-2.60
2018-02-05T19:55:57.486Z,-2.60
2018-02-05T19:58:25.036Z,-2.60
2018-02-05T20:00:53.092Z,-2.70
2018-02-05T20:03:20.672Z,-2.80
2018-02-05T20:05:48.605Z,-2.70
2018-02-05T20:08:16.912Z,-2.90
2018-02-05T20:10:46.840Z,-2.90
2018-02-05T20:13:14.582Z,-2.90
2018-02-05T20:15:42.476Z,-2.90
2018-02-05T20:18:10.015Z,-2.80
2018-02-05T20:20:37.570Z,-2.80
2018-02-05T20:23:05.086Z,-2.70
2018-02-05T20:25:34.084Z,-2.70
2018-02-05T20:28:03.024Z,-2.70
2018-02-05T20:30:30.541Z,-2.70
2018-02-05T20:32:59.639Z,-2.80
2018-02-05T20:35:28.038Z,-2.80
2018-02-05T20:37:55.553Z,-2.80
2018-02-05T20:40:23.881Z,-2.70
2018-02-05T20:42:51.432Z,-2.70
2018-02-05T20:45:18.989Z,-2.70
2018-02-05T20:47:46.550Z,-2.70
2018-02-05T20:50:14.071Z,-2.70
2018-02-05T20:52:42.383Z,-2.70
2018-02-05T20:55:09.904Z,-2.70
2018-02-05T20:57:38.191Z,-2.60
2018-02-05T21:00:06.482Z,-2.60
2018-02-05T21:02:34.011Z,-2.70
2018-02-05T21:05:02.736Z,-2.60
2018-02-05T21:07:30.259Z,-2.60
2018-02-05T21:09:59.060Z,-2.50
2018-02-05T21:12:28.350Z,-2.50
2018-02-05T21:14:56.664Z,-2.40
2018-02-05T21:17:24.295Z,-2.50
2018-02-05T21:19:52.679Z,-2.40
2018-02-05T21:22:20.200Z,-2.40
2018-02-05T21:24:47.816Z,-2.40
2018-02-05T21:27:15.374Z,-2.30
2018-02-05T21:29:42.894Z,-2.30
2018-02-05T21:32:11.696Z,-2.20
2018-02-05T21:34:39.983Z,-2.10
2018-02-05T21:37:08.212Z,-2.20
2018-02-05T21:39:35.928Z,-2.10
2018-02-05T21:42:04.544Z,-2.10
2018-02-05T21:44:38.958Z,-2.10
2018-02-05T21:47:06.452Z,-2.00
2018-02-05T21:49:34.936Z,-2.00
2018-02-05T21:52:03.241Z,-2.00
2018-02-05T21:54:31.905Z,-2.00
2018-02-05T21:57:00.827Z,-2.00
2018-02-05T21:59:28.384Z,-2.00
2018-02-05T22:01:56.475Z,-2.00
2018-02-05T22:04:24.180Z,-2.00
2018-02-05T22:06:52.469Z,-2.00
2018-02-05T22:09:19.988Z,-2.00
2018-02-05T22:11:47.511Z,-2.00
2018-02-05T22:14:15.026Z,-2.00
2018-02-05T22:16:44.156Z,-1.90
2018-02-05T22:19:11.674Z,-1.90
2018-02-05T22:21:40.592Z,-1.90
2018-02-05T22:24:08.457Z,-1.90
2018-02-05T22:26:36.702Z,-1.90
2018-02-05T22:29:05.012Z,-1.90
2018-02-05T22:31:33.012Z,-1.90
2018-02-05T22:34:00.545Z,-1.80
2018-02-05T22:36:28.432Z,-1.80
2018-02-05T22:38:55.965Z,-1.80
2018-02-05T22:41:23.496Z,-1.80
2018-02-05T22:43:51.804Z,-1.80
2018-02-05T22:46:19.776Z,-1.80
2018-02-05T22:48:47.424Z,-1.80
2018-02-05T22:51:14.946Z,-1.80
2018-02-05T22:53:42.555Z,-1.80
2018-02-05T22:56:10.356Z,-1.90
2018-02-05T22:58:40.539Z,-1.90
2018-02-05T23:01:08.104Z,-1.90
2018-02-05T23:03:35.621Z,-1.90
2018-02-05T23:06:04.974Z,-1.90
2018-02-05T23:08:32.490Z,-1.90
2018-02-05T23:11:03.356Z,-1.90
2018-02-05T23:13:30.885Z,-1.90
2018-02-05T23:15:59.168Z,-1.90
2018-02-05T23:18:26.691Z,-1.90
2018-02-05T23:20:54.747Z,-1.90
2018-02-05T23:23:22.284Z,-1.90
2018-02-05T23:25:49.810Z,-1.90
2018-02-05T23:28:18.201Z,-1.90
2018-02-05T23:30:46.165Z,-1.90
2018-02-05T23:33:13.693Z,-1.90
2018-02-05T23:35:42.001Z,-2.00
2018-02-05T23:38:09.734Z,-2.00
2018-02-05T23:40:38.732Z,-2.10
2018-02-05T23:43:07.200Z,-2.00
2018-02-05T23:45:36.659Z,-2.10
2018-02-05T23:48:04.195Z,-2.10
2018-02-05T23:50:31.711Z,-2.10
2018-02-05T23:52:59.636Z,-2.00
2018-02-05T23:55:27.854Z,-2.00
2018-02-05T23:57:55.771Z,-2.00
